Search for airport 
image banner adimage banner adimage banner ad
image banner ad

CN12 - Williams

Located in Williams, United States

ICAO - CN12, IATA -

Data provided by Airmate  

General information

Coordinates: N39°9'49" W122°7'54"
Elevation is 68 feet MSL.
Magnetic variation is 16° East
View others Airports in California

Operational data

Special qualification required
Current time UTC:
Current local time:
Weather at : KMYV - Yuba County ( 49 km )
METAR: KMYV 240953Z AUTO 14006KT 10SM CLR 18/12 A2993 RMK AO2 SLP137 T01780117 $
View NOTAMs / SUP AIP / TFR affecting this airport [VIEW]
Communications frequencies: [VIEW]

Runways:

RWY identifierQFULength (ft)Width (ft)SurfaceLDA (ft)
16250040ASPH
34250040ASPH

Airport contact information

Address: Williams United States

Satellite view of CN12